createdAt,value
2017-09-20T03:30:38.523Z,71.40
2017-09-20T03:33:06.284Z,71.40
2017-09-20T03:35:34.373Z,71.40
2017-09-20T03:38:01.994Z,71.00
2017-09-20T03:40:29.656Z,70.90
2017-09-20T03:42:57.285Z,71.40
2017-09-20T03:45:24.886Z,71.20
2017-09-20T03:47:52.870Z,71.00
2017-09-20T03:50:20.512Z,71.30
2017-09-20T03:52:48.148Z,71.00
2017-09-20T03:55:16.172Z,71.20
2017-09-20T03:57:43.762Z,71.20
2017-09-20T04:00:12.129Z,70.70
2017-09-20T04:02:40.801Z,70.10
2017-09-20T04:05:08.401Z,70.10
2017-09-20T04:07:36.004Z,70.80
2017-09-20T04:10:03.642Z,70.50
2017-09-20T04:12:31.254Z,70.40
2017-09-20T04:15:00.165Z,70.70
2017-09-20T04:17:28.570Z,70.70
2017-09-20T04:19:56.189Z,70.70
2017-09-20T04:22:24.586Z,70.70
2017-09-20T04:24:52.198Z,70.60
2017-09-20T04:27:20.165Z,70.60
2017-09-20T04:29:47.756Z,70.40
2017-09-20T04:32:16.166Z,70.20
2017-09-20T04:34:44.182Z,70.20
2017-09-20T04:37:11.806Z,70.40
2017-09-20T04:39:39.441Z,70.50
2017-09-20T04:42:07.076Z,70.70
2017-09-20T04:44:34.675Z,70.40
2017-09-20T04:47:02.698Z,70.10
2017-09-20T04:49:30.308Z,69.80
2017-09-20T04:51:57.920Z,70.00
2017-09-20T04:54:25.543Z,70.00
2017-09-20T04:56:53.143Z,70.20
2017-09-20T04:59:21.110Z,70.50
2017-09-20T05:01:48.723Z,70.20
2017-09-20T05:04:16.333Z,70.10
2017-09-20T05:06:43.965Z,70.00
2017-09-20T05:09:11.565Z,70.30
2017-09-20T05:11:39.577Z,70.00
2017-09-20T05:14:07.189Z,69.90
2017-09-20T05:16:34.796Z,70.30
2017-09-20T05:19:02.392Z,70.10
2017-09-20T05:21:29.998Z,70.20
2017-09-20T05:23:58.720Z,70.40
2017-09-20T05:26:26.329Z,70.30
2017-09-20T05:28:53.943Z,70.70
2017-09-20T05:31:21.936Z,70.80
2017-09-20T05:33:49.541Z,70.80
2017-09-20T05:36:17.158Z,70.70
2017-09-20T05:38:45.255Z,70.70
2017-09-20T05:41:12.840Z,71.10
2017-09-20T05:43:40.520Z,70.50
2017-09-20T05:46:08.531Z,71.30
2017-09-20T05:48:36.134Z,71.20
2017-09-20T05:51:03.754Z,70.70
2017-09-20T05:53:31.739Z,70.90
2017-09-20T05:56:00.116Z,71.60
2017-09-20T05:58:28.507Z,71.10
2017-09-20T06:00:56.974Z,72.10
2017-09-20T06:03:24.586Z,71.30
2017-09-20T06:05:52.600Z,72.40
2017-09-20T06:08:20.973Z,73.10
2017-09-20T06:10:48.636Z,73.10
2017-09-20T06:13:16.265Z,72.80
2017-09-20T06:15:43.869Z,72.50
2017-09-20T06:18:12.630Z,74.20
2017-09-20T06:20:40.238Z,73.30
2017-09-20T06:23:07.852Z,73.80
2017-09-20T06:25:35.480Z,72.70
2017-09-20T06:28:03.075Z,72.20
2017-09-20T06:30:31.040Z,72.30
2017-09-20T06:32:58.652Z,72.20
2017-09-20T06:35:26.250Z,72.50
2017-09-20T06:37:53.885Z,73.70
2017-09-20T06:40:21.503Z,73.10
2017-09-20T06:42:50.201Z,73.10
2017-09-20T06:45:18.566Z,72.90
2017-09-20T06:47:46.158Z,72.90
2017-09-20T06:50:13.778Z,72.50
2017-09-20T06:52:41.398Z,72.20
2017-09-20T06:55:09.308Z,71.50
2017-09-20T06:57:36.912Z,71.40
2017-09-20T07:00:04.508Z,71.80
2017-09-20T07:02:32.246Z,72.10
2017-09-20T07:05:00.111Z,72.30
2017-09-20T07:07:28.171Z,73.40
2017-09-20T07:09:55.794Z,73.50
2017-09-20T07:12:23.405Z,73.40
2017-09-20T07:14:51.321Z,73.30
2017-09-20T07:17:18.925Z,73.10
2017-09-20T07:19:46.520Z,73.10
2017-09-20T07:22:14.649Z,73.20
2017-09-20T07:24:42.271Z,73.40
2017-09-20T07:27:09.880Z,73.20
2017-09-20T07:29:37.501Z,74.90
2017-09-20T07:32:05.899Z,74.00
2017-09-20T07:34:34.603Z,73.20
2017-09-20T07:37:02.204Z,73.00
2017-09-20T07:39:29.819Z,72.40
2017-09-20T07:41:57.448Z,71.40
2017-09-20T07:44:25.059Z,71.50
2017-09-20T07:46:52.965Z,70.80
2017-09-20T07:49:20.625Z,70.30
2017-09-20T07:51:48.306Z,70.10
2017-09-20T07:54:16.262Z,70.00
2017-09-20T07:56:43.875Z,70.80
2017-09-20T07:59:11.485Z,70.40
2017-09-20T08:01:39.132Z,70.30
2017-09-20T08:04:06.778Z,69.50
2017-09-20T08:06:34.768Z,69.20
2017-09-20T08:09:02.384Z,68.70
2017-09-20T08:11:29.984Z,68.00
2017-09-20T08:13:58.643Z,67.90
2017-09-20T08:16:26.318Z,67.80
2017-09-20T08:18:53.920Z,68.00
2017-09-20T08:21:22.310Z,68.90
2017-09-20T08:23:50.681Z,68.50
2017-09-20T08:26:19.464Z,68.20
2017-09-20T08:28:47.843Z,67.70
2017-09-20T08:31:16.215Z,67.20
2017-09-20T08:33:43.825Z,67.00
2017-09-20T08:36:11.419Z,66.90
2017-09-20T08:38:39.313Z,67.80
2017-09-20T08:41:07.668Z,67.60
2017-09-20T08:43:35.267Z,67.50
2017-09-20T08:46:03.662Z,67.10
2017-09-20T08:48:31.267Z,66.90
2017-09-20T08:50:59.241Z,68.50
2017-09-20T08:53:26.850Z,68.50
2017-09-20T08:55:54.456Z,67.40
2017-09-20T08:58:22.521Z,65.30
2017-09-20T09:00:50.125Z,65.00
2017-09-20T09:03:18.492Z,64.50
2017-09-20T09:05:47.256Z,64.40
2017-09-20T09:08:14.858Z,64.30
2017-09-20T09:10:42.465Z,64.90
2017-09-20T09:13:11.272Z,64.50
2017-09-20T09:15:38.881Z,66.30
2017-09-20T09:18:06.474Z,67.00
2017-09-20T09:20:34.152Z,66.70
2017-09-20T09:23:01.758Z,67.10
2017-09-20T09:25:29.652Z,65.70
2017-09-20T09:27:57.259Z,64.60
2017-09-20T09:30:25.624Z,61.90
2017-09-20T09:32:53.533Z,61.90
2017-09-20T09:35:21.135Z,59.50
2017-09-20T09:37:48.733Z,60.40
2017-09-20T09:40:17.159Z,59.30
2017-09-20T09:42:44.877Z,59.20
2017-09-20T09:45:13.629Z,59.60
2017-09-20T09:47:42.750Z,58.80
2017-09-20T09:50:11.123Z,57.10
2017-09-20T09:52:38.756Z,57.10
2017-09-20T09:55:06.418Z,57.20
2017-09-20T09:57:34.510Z,57.30
2017-09-20T10:00:02.126Z,57.00
2017-09-20T10:02:29.735Z,55.60
2017-09-20T10:04:57.350Z,54.80
2017-09-20T10:07:25.034Z,53.30
2017-09-20T10:09:52.926Z,52.80
2017-09-20T10:12:20.542Z,49.90
2017-09-20T10:14:48.140Z,48.70
2017-09-20T10:17:15.765Z,48.30
2017-09-20T10:19:43.437Z,47.40
2017-09-20T10:22:11.355Z,45.40
2017-09-20T10:24:39.738Z,41.60
2017-09-20T10:27:08.127Z,39.90
2017-09-20T10:29:35.761Z,39.80
2017-09-20T10:32:03.368Z,36.20
2017-09-20T10:34:31.390Z,31.40
2017-09-20T10:36:59.001Z,28.40
2017-09-20T10:39:26.617Z,27.20
2017-09-20T10:41:55.018Z,35.10
2017-09-20T10:44:22.722Z,35.00
2017-09-20T10:46:50.746Z,37.80
2017-09-20T10:49:19.151Z,38.70
2017-09-20T10:51:46.754Z,38.70
2017-09-20T10:54:14.438Z,38.30
2017-09-20T10:56:42.817Z,36.70
2017-09-20T10:59:11.567Z,35.90
2017-09-20T11:01:39.189Z,35.90
2017-09-20T11:04:06.798Z,36.10
2017-09-20T11:06:34.423Z,36.90
2017-09-20T11:09:02.030Z,35.80
2017-09-20T11:11:30.095Z,37.10
2017-09-20T11:13:57.694Z,37.80
2017-09-20T11:16:25.296Z,39.80
2017-09-20T11:18:52.944Z,41.30
2017-09-20T11:21:20.587Z,42.30
2017-09-20T11:23:48.511Z,44.10
2017-09-20T11:26:16.112Z,44.60
2017-09-20T11:28:43.720Z,44.50
2017-09-20T11:31:11.799Z,44.30
2017-09-20T11:33:39.409Z,42.90
2017-09-20T11:36:07.054Z,41.70
2017-09-20T11:38:35.446Z,41.60
2017-09-20T11:41:03.074Z,41.50
2017-09-20T11:43:31.022Z,39.80
2017-09-20T11:45:58.693Z,40.50
2017-09-20T11:48:26.319Z,42.00
2017-09-20T11:50:53.940Z,42.80
2017-09-20T11:53:22.310Z,40.20
2017-09-20T11:55:51.078Z,38.60
2017-09-20T11:58:18.681Z,38.50
2017-09-20T12:00:46.280Z,39.30
2017-09-20T12:03:14.235Z,39.30
2017-09-20T12:05:41.843Z,39.50
2017-09-20T12:08:09.454Z,40.90
2017-09-20T12:10:37.461Z,42.60
2017-09-20T12:13:05.078Z,42.50
2017-09-20T12:15:32.763Z,43.70
2017-09-20T12:18:00.411Z,43.40
2017-09-20T12:20:28.033Z,42.00
2017-09-20T12:22:57.672Z,40.20
2017-09-20T12:25:25.282Z,40.20
2017-09-20T12:27:52.881Z,36.90
2017-09-20T12:30:20.585Z,36.50
2017-09-20T12:32:48.187Z,35.60
2017-09-20T12:35:16.904Z,25.40
2017-09-20T12:37:44.508Z,25.30
2017-09-20T12:40:12.146Z,23.90
2017-09-20T12:42:39.762Z,23.40
2017-09-20T12:45:09.349Z,20.30
2017-09-20T12:47:38.220Z,19.90
2017-09-20T12:50:05.851Z,19.90
2017-09-20T12:52:33.458Z,20.40
2017-09-20T12:55:01.590Z,19.40
2017-09-20T12:57:29.200Z,21.30
2017-09-20T12:59:57.962Z,23.40
2017-09-20T13:02:25.558Z,23.30
2017-09-20T13:04:53.945Z,26.60
2017-09-20T13:07:21.563Z,26.60
2017-09-20T13:09:49.168Z,23.00
2017-09-20T13:12:17.156Z,22.20
2017-09-20T13:14:44.750Z,22.80
2017-09-20T13:17:12.354Z,26.10
2017-09-20T13:19:40.759Z,30.10
2017-09-20T13:22:08.358Z,30.10
2017-09-20T13:24:36.380Z,31.60
2017-09-20T13:27:03.984Z,32.60
2017-09-20T13:29:31.587Z,32.60
2017-09-20T13:31:59.205Z,33.90
2017-09-20T13:34:26.795Z,35.30
2017-09-20T13:36:55.566Z,37.50
2017-09-20T13:39:23.149Z,37.40
2017-09-20T13:41:51.522Z,39.90
2017-09-20T13:44:19.899Z,39.30
2017-09-20T13:46:48.270Z,39.70
2017-09-20T13:49:17.036Z,39.90
2017-09-20T13:51:44.632Z,39.80
2017-09-20T13:54:13.006Z,36.30
2017-09-20T13:56:41.397Z,35.70
2017-09-20T13:59:09.924Z,35.70
2017-09-20T14:01:37.518Z,35.60
2017-09-20T14:04:05.901Z,36.20
2017-09-20T14:06:34.265Z,36.80
2017-09-20T14:09:02.225Z,36.80
2017-09-20T14:11:29.820Z,38.10
2017-09-20T14:13:57.424Z,37.60
2017-09-20T14:16:25.058Z,37.40
2017-09-20T14:18:52.709Z,37.70
2017-09-20T14:21:20.649Z,38.20
2017-09-20T14:23:48.250Z,36.60
2017-09-20T14:26:15.858Z,35.60
2017-09-20T14:28:43.479Z,36.00
2017-09-20T14:31:11.082Z,35.80
2017-09-20T14:33:39.048Z,36.20
2017-09-20T14:36:06.708Z,37.50
2017-09-20T14:38:34.308Z,37.60
2017-09-20T14:41:01.922Z,38.50
2017-09-20T14:43:29.529Z,39.20
2017-09-20T14:45:57.564Z,39.80
2017-09-20T14:48:25.154Z,38.80
2017-09-20T14:50:53.521Z,39.00
2017-09-20T14:53:21.914Z,40.10
2017-09-20T14:55:50.293Z,40.00
2017-09-20T14:58:19.063Z,41.30
2017-09-20T15:00:47.432Z,40.30
2017-09-20T15:03:15.052Z,40.20
2017-09-20T15:05:42.663Z,40.90
2017-09-20T15:08:11.036Z,42.10
2017-09-20T15:10:39.101Z,42.00
2017-09-20T15:13:06.711Z,41.90
2017-09-20T15:15:34.314Z,42.00
2017-09-20T15:18:01.941Z,43.10
2017-09-20T15:20:29.610Z,43.10
2017-09-20T15:22:57.225Z,42.90
2017-09-20T15:25:26.067Z,44.10
2017-09-20T15:27:53.682Z,44.10
2017-09-20T15:30:22.056Z,44.60
2017-09-20T15:32:50.512Z,44.90
2017-09-20T15:35:19.154Z,45.70
2017-09-20T15:37:47.163Z,45.70
2017-09-20T15:40:14.770Z,45.70
2017-09-20T15:42:42.376Z,46.20
2017-09-20T15:45:10.048Z,46.40
2017-09-20T15:47:37.681Z,46.90
2017-09-20T15:50:05.673Z,46.70
2017-09-20T15:52:33.288Z,45.40
2017-09-20T15:55:00.903Z,44.20
2017-09-20T15:57:28.520Z,44.50
2017-09-20T15:59:56.173Z,45.50
2017-09-20T16:02:24.153Z,46.10
2017-09-20T16:04:51.752Z,46.70
2017-09-20T16:07:19.448Z,46.60
2017-09-20T16:09:47.850Z,45.80
2017-09-20T16:12:15.454Z,45.80
2017-09-20T16:14:43.079Z,45.90
2017-09-20T16:17:11.089Z,46.20
2017-09-20T16:19:38.706Z,46.40
2017-09-20T16:22:06.300Z,46.40
2017-09-20T16:24:33.952Z,46.30
2017-09-20T16:27:01.552Z,46.90
2017-09-20T16:29:30.317Z,46.70
2017-09-20T16:31:57.926Z,46.60
2017-09-20T16:34:25.551Z,47.20
2017-09-20T16:36:55.147Z,47.50
2017-09-20T16:39:23.498Z,47.90
2017-09-20T16:41:51.505Z,48.10
2017-09-20T16:44:19.215Z,48.90
2017-09-20T16:46:46.867Z,48.70
2017-09-20T16:49:16.747Z,49.50
2017-09-20T16:51:45.327Z,48.90
2017-09-20T16:54:13.708Z,49.10
2017-09-20T16:56:42.485Z,48.30
2017-09-20T16:59:10.081Z,48.30
2017-09-20T17:01:37.686Z,48.40
2017-09-20T17:04:05.675Z,48.40
2017-09-20T17:06:33.282Z,47.90
2017-09-20T17:09:00.915Z,47.10
2017-09-20T17:11:29.691Z,47.20
2017-09-20T17:13:57.310Z,47.10
2017-09-20T17:16:24.950Z,47.90
2017-09-20T17:18:52.991Z,48.40
2017-09-20T17:21:21.366Z,49.40
2017-09-20T17:23:49.030Z,48.90
2017-09-20T17:26:17.478Z,49.00
2017-09-20T17:28:45.090Z,48.70
2017-09-20T17:31:13.128Z,48.70
2017-09-20T17:33:40.728Z,48.50
2017-09-20T17:36:09.336Z,48.40
2017-09-20T17:38:36.976Z,48.90
2017-09-20T17:41:04.618Z,48.40
2017-09-20T17:43:33.406Z,49.10
2017-09-20T17:46:01.786Z,49.30
2017-09-20T17:48:30.774Z,49.30
2017-09-20T17:50:59.186Z,49.10
2017-09-20T17:53:26.873Z,49.00
2017-09-20T17:55:55.164Z,48.70
2017-09-20T17:58:22.805Z,48.80
2017-09-20T18:00:50.440Z,48.80
2017-09-20T18:03:18.217Z,49.40
2017-09-20T18:05:46.100Z,49.70
2017-09-20T18:08:13.730Z,50.00
2017-09-20T18:10:41.385Z,50.60
2017-09-20T18:13:09.102Z,50.80
2017-09-20T18:15:37.274Z,51.00
2017-09-20T18:18:04.881Z,50.80
2017-09-20T18:20:32.505Z,51.50
2017-09-20T18:23:00.564Z,51.60
2017-09-20T18:25:28.938Z,52.20
2017-09-20T18:27:57.424Z,52.20
2017-09-20T18:30:25.417Z,52.60
2017-09-20T18:32:53.024Z,52.80
2017-09-20T18:35:20.730Z,52.80
2017-09-20T18:37:48.823Z,52.70
2017-09-20T18:40:17.373Z,52.50
2017-09-20T18:42:44.993Z,52.50
2017-09-20T18:45:14.101Z,52.40
2017-09-20T18:47:41.780Z,52.20
2017-09-20T18:50:09.523Z,52.20
2017-09-20T18:52:37.710Z,52.00
2017-09-20T18:55:05.329Z,52.60
2017-09-20T18:57:33.947Z,52.30
2017-09-20T19:00:01.693Z,52.30
2017-09-20T19:02:29.319Z,52.30
2017-09-20T19:04:57.394Z,52.30
2017-09-20T19:07:24.993Z,52.40
2017-09-20T19:09:52.873Z,52.20
2017-09-20T19:12:20.901Z,52.20
2017-09-20T19:14:49.325Z,52.00
2017-09-20T19:17:16.940Z,52.00
2017-09-20T19:19:45.374Z,52.60
2017-09-20T19:22:13.352Z,52.60
2017-09-20T19:24:41.357Z,53.00
2017-09-20T19:27:08.984Z,53.10
2017-09-20T19:29:36.602Z,53.60
2017-09-20T19:32:04.322Z,53.40
2017-09-20T19:34:31.934Z,53.50
2017-09-20T19:37:00.068Z,53.60
2017-09-20T19:39:28.526Z,54.10
2017-09-20T19:41:56.962Z,53.90
2017-09-20T19:44:25.001Z,53.90
2017-09-20T19:46:52.729Z,54.10
2017-09-20T19:49:20.451Z,54.30
2017-09-20T19:51:49.311Z,54.20
2017-09-20T19:54:16.960Z,54.20
2017-09-20T19:56:44.650Z,54.60
2017-09-20T19:59:14.389Z,54.70
2017-09-20T20:01:42.023Z,54.60
2017-09-20T20:04:10.472Z,54.70
2017-09-20T20:06:38.135Z,54.70
2017-09-20T20:09:05.885Z,54.90
2017-09-20T20:11:34.018Z,55.20
2017-09-20T20:14:02.429Z,55.00
2017-09-20T20:16:30.040Z,54.90
2017-09-20T20:18:58.443Z,54.30
2017-09-20T20:21:26.086Z,54.30
2017-09-20T20:23:54.827Z,54.50
2017-09-20T20:26:22.618Z,54.50
2017-09-20T20:28:50.252Z,54.60
2017-09-20T20:31:18.785Z,54.80
2017-09-20T20:33:47.169Z,55.00
2017-09-20T20:36:15.110Z,54.90
2017-09-20T20:38:42.715Z,55.10
2017-09-20T20:41:10.370Z,55.20
2017-09-20T20:43:38.004Z,55.30
2017-09-20T20:46:06.381Z,55.60
2017-09-20T20:48:34.451Z,55.60
2017-09-20T20:51:02.083Z,55.60
2017-09-20T20:53:29.776Z,55.80
2017-09-20T20:55:57.398Z,55.90
2017-09-20T20:58:25.885Z,56.80
2017-09-20T21:00:53.980Z,57.70
2017-09-20T21:03:21.582Z,58.00
2017-09-20T21:05:49.175Z,57.90
2017-09-20T21:08:16.788Z,57.70
2017-09-20T21:10:45.157Z,57.90
2017-09-20T21:13:13.900Z,57.90
2017-09-20T21:15:41.501Z,57.90
2017-09-20T21:18:09.868Z,58.00
2017-09-20T21:20:37.495Z,57.80
2017-09-20T21:23:05.156Z,58.40
2017-09-20T21:25:33.119Z,57.80
2017-09-20T21:28:00.727Z,58.00
2017-09-20T21:30:28.424Z,58.60
2017-09-20T21:32:56.757Z,58.90
2017-09-20T21:35:24.390Z,58.60
2017-09-20T21:37:51.994Z,58.10
2017-09-20T21:40:20.756Z,57.90
2017-09-20T21:42:48.350Z,57.90
2017-09-20T21:45:16.726Z,58.20
2017-09-20T21:47:45.115Z,58.20
2017-09-20T21:50:13.620Z,58.00
2017-09-20T21:52:41.661Z,58.00
2017-09-20T21:55:10.028Z,58.20
2017-09-20T21:57:38.398Z,58.40
2017-09-20T22:00:06.681Z,58.20
2017-09-20T22:02:35.045Z,58.30
2017-09-20T22:05:02.732Z,58.30
2017-09-20T22:07:31.122Z,58.40
2017-09-20T22:09:58.729Z,58.40
2017-09-20T22:12:26.820Z,58.30
2017-09-20T22:14:53.902Z,58.40
2017-09-20T22:17:34.533Z,59.00
2017-09-20T22:20:14.038Z,59.00
2017-09-20T22:22:53.808Z,59.30
2017-09-20T22:25:34.039Z,59.60
2017-09-20T22:28:02.874Z,59.60
